sensor_id;sensor_type;location;lat;lon;timestamp;P1;durP1;ratioP1;P2;durP2;ratioP2
27740;SDS011;15134;48.768;9.184;2023-08-21T00:00:12;1184.50;;;999.90;;
27740;SDS011;15134;48.768;9.184;2023-08-21T00:02:39;1177.72;;;999.90;;
27740;SDS011;15134;48.768;9.184;2023-08-21T00:05:05;1179.25;;;999.90;;
27740;SDS011;15134;48.768;9.184;2023-08-21T00:07:31;1180.43;;;999.90;;
27740;SDS011;15134;48.768;9.184;2023-08-21T00:09:57;1177.23;;;999.90;;
27740;SDS011;15134;48.768;9.184;2023-08-21T00:12:22;1178.20;;;999.90;;
27740;SDS011;15134;48.768;9.184;2023-08-21T00:14:48;1180.83;;;999.90;;
27740;SDS011;15134;48.768;9.184;2023-08-21T00:17:14;1176.07;;;999.90;;
27740;SDS011;15134;48.768;9.184;2023-08-21T00:19:39;1176.80;;;999.90;;
27740;SDS011;15134;48.768;9.184;2023-08-21T00:22:05;1174.80;;;999.90;;
27740;SDS011;15134;48.768;9.184;2023-08-21T00:24:31;1172.32;;;999.90;;
27740;SDS011;15134;48.768;9.184;2023-08-21T00:27:00;1175.03;;;999.90;;
27740;SDS011;15134;48.768;9.184;2023-08-21T00:29:28;1174.95;;;999.90;;
27740;SDS011;15134;48.768;9.184;2023-08-21T00:31:53;1173.10;;;999.90;;
27740;SDS011;15134;48.768;9.184;2023-08-21T00:34:21;1173.88;;;999.90;;
27740;SDS011;15134;48.768;9.184;2023-08-21T00:36:46;1175.80;;;999.90;;
27740;SDS011;15134;48.768;9.184;2023-08-21T00:39:12;1170.82;;;999.90;;
27740;SDS011;15134;48.768;9.184;2023-08-21T00:41:38;1171.87;;;999.90;;
27740;SDS011;15134;48.768;9.184;2023-08-21T00:44:03;1173.37;;;999.90;;
27740;SDS011;15134;48.768;9.184;2023-08-21T00:46:30;1174.55;;;999.90;;
27740;SDS011;15134;48.768;9.184;2023-08-21T00:48:56;1173.78;;;999.90;;
27740;SDS011;15134;48.768;9.184;2023-08-21T00:51:28;1173.68;;;999.90;;
27740;SDS011;15134;48.768;9.184;2023-08-21T00:53:54;1169.47;;;999.90;;
27740;SDS011;15134;48.768;9.184;2023-08-21T00:56:21;1171.65;;;999.90;;
27740;SDS011;15134;48.768;9.184;2023-08-21T00:58:46;1166.97;;;999.90;;
27740;SDS011;15134;48.768;9.184;2023-08-21T01:01:12;1171.85;;;999.90;;
27740;SDS011;15134;48.768;9.184;2023-08-21T01:03:41;1174.82;;;999.90;;
27740;SDS011;15134;48.768;9.184;2023-08-21T01:06:07;1171.65;;;999.90;;
27740;SDS011;15134;48.768;9.184;2023-08-21T01:08:42;1168.72;;;999.90;;
27740;SDS011;15134;48.768;9.184;2023-08-21T01:11:21;1164.97;;;999.90;;
27740;SDS011;15134;48.768;9.184;2023-08-21T01:14:06;1172.47;;;999.90;;
27740;SDS011;15134;48.768;9.184;2023-08-21T01:16:50;1163.50;;;999.90;;
27740;SDS011;15134;48.768;9.184;2023-08-21T01:19:26;1170.25;;;999.90;;
27740;SDS011;15134;48.768;9.184;2023-08-21T01:21:57;1166.32;;;999.90;;
27740;SDS011;15134;48.768;9.184;2023-08-21T01:24:24;1166.53;;;999.90;;
27740;SDS011;15134;48.768;9.184;2023-08-21T01:26:53;1169.33;;;999.90;;
27740;SDS011;15134;48.768;9.184;2023-08-21T01:29:19;1167.57;;;999.90;;
27740;SDS011;15134;48.768;9.184;2023-08-21T01:31:46;1165.68;;;999.90;;
27740;SDS011;15134;48.768;9.184;2023-08-21T01:34:35;1163.53;;;999.90;;
27740;SDS011;15134;48.768;9.184;2023-08-21T01:37:03;1166.93;;;999.90;;
27740;SDS011;15134;48.768;9.184;2023-08-21T01:39:29;1166.18;;;999.90;;
27740;SDS011;15134;48.768;9.184;2023-08-21T01:41:56;1167.72;;;999.90;;
27740;SDS011;15134;48.768;9.184;2023-08-21T01:44:23;1166.07;;;999.90;;
27740;SDS011;15134;48.768;9.184;2023-08-21T01:46:49;1159.88;;;999.90;;
27740;SDS011;15134;48.768;9.184;2023-08-21T01:49:15;1163.00;;;999.90;;
27740;SDS011;15134;48.768;9.184;2023-08-21T01:51:45;1162.65;;;999.90;;
27740;SDS011;15134;48.768;9.184;2023-08-21T01:54:11;1164.00;;;999.90;;
27740;SDS011;15134;48.768;9.184;2023-08-21T01:56:37;1165.33;;;999.90;;
27740;SDS011;15134;48.768;9.184;2023-08-21T01:59:04;1164.55;;;999.90;;
27740;SDS011;15134;48.768;9.184;2023-08-21T02:01:31;1152.03;;;999.90;;
27740;SDS011;15134;48.768;9.184;2023-08-21T02:03:57;1155.57;;;999.90;;
27740;SDS011;15134;48.768;9.184;2023-08-21T02:06:23;1158.85;;;999.90;;
27740;SDS011;15134;48.768;9.184;2023-08-21T02:08:49;1161.03;;;999.90;;
27740;SDS011;15134;48.768;9.184;2023-08-21T02:11:24;1157.95;;;999.90;;
27740;SDS011;15134;48.768;9.184;2023-08-21T02:13:51;1154.53;;;999.90;;
27740;SDS011;15134;48.768;9.184;2023-08-21T02:16:17;1160.43;;;999.90;;
27740;SDS011;15134;48.768;9.184;2023-08-21T02:18:42;1162.57;;;999.90;;
27740;SDS011;15134;48.768;9.184;2023-08-21T02:21:09;1155.53;;;999.90;;
27740;SDS011;15134;48.768;9.184;2023-08-21T02:23:35;1158.40;;;999.90;;
27740;SDS011;15134;48.768;9.184;2023-08-21T02:26:00;1159.23;;;999.90;;
27740;SDS011;15134;48.768;9.184;2023-08-21T02:28:29;1155.45;;;999.90;;
27740;SDS011;15134;48.768;9.184;2023-08-21T02:30:55;1151.38;;;999.90;;
27740;SDS011;15134;48.768;9.184;2023-08-21T02:33:21;1151.13;;;999.90;;
27740;SDS011;15134;48.768;9.184;2023-08-21T02:35:46;1150.85;;;999.90;;
27740;SDS011;15134;48.768;9.184;2023-08-21T02:38:12;1158.30;;;999.90;;
27740;SDS011;15134;48.768;9.184;2023-08-21T02:40:38;1154.53;;;999.90;;
27740;SDS011;15134;48.768;9.184;2023-08-21T02:43:04;1153.20;;;999.90;;
27740;SDS011;15134;48.768;9.184;2023-08-21T02:45:30;1153.13;;;999.90;;
27740;SDS011;15134;48.768;9.184;2023-08-21T02:47:56;1153.27;;;999.90;;
27740;SDS011;15134;48.768;9.184;2023-08-21T02:50:22;1153.18;;;999.90;;
27740;SDS011;15134;48.768;9.184;2023-08-21T02:52:48;1154.77;;;999.90;;
27740;SDS011;15134;48.768;9.184;2023-08-21T02:55:13;1154.35;;;999.90;;
27740;SDS011;15134;48.768;9.184;2023-08-21T02:57:40;1149.25;;;999.90;;
27740;SDS011;15134;48.768;9.184;2023-08-21T03:00:08;1148.90;;;999.90;;
27740;SDS011;15134;48.768;9.184;2023-08-21T03:02:34;1154.20;;;999.90;;
27740;SDS011;15134;48.768;9.184;2023-08-21T03:04:59;1146.20;;;999.90;;
27740;SDS011;15134;48.768;9.184;2023-08-21T03:07:25;1151.37;;;999.90;;
27740;SDS011;15134;48.768;9.184;2023-08-21T03:09:53;1147.70;;;999.90;;
27740;SDS011;15134;48.768;9.184;2023-08-21T03:12:18;1148.05;;;999.90;;
27740;SDS011;15134;48.768;9.184;2023-08-21T03:14:47;1137.70;;;999.90;;
27740;SDS011;15134;48.768;9.184;2023-08-21T03:17:13;1146.10;;;999.90;;
27740;SDS011;15134;48.768;9.184;2023-08-21T03:19:38;1141.40;;;999.90;;
27740;SDS011;15134;48.768;9.184;2023-08-21T03:22:04;1144.80;;;999.90;;
27740;SDS011;15134;48.768;9.184;2023-08-21T03:24:31;1148.65;;;999.90;;
27740;SDS011;15134;48.768;9.184;2023-08-21T03:26:57;1141.40;;;999.90;;
27740;SDS011;15134;48.768;9.184;2023-08-21T03:29:23;1149.32;;;999.90;;
27740;SDS011;15134;48.768;9.184;2023-08-21T03:31:49;1145.10;;;999.90;;
27740;SDS011;15134;48.768;9.184;2023-08-21T03:34:15;1141.43;;;999.90;;
27740;SDS011;15134;48.768;9.184;2023-08-21T03:36:41;1141.60;;;999.90;;
27740;SDS011;15134;48.768;9.184;2023-08-21T03:39:10;1142.97;;;999.90;;
27740;SDS011;15134;48.768;9.184;2023-08-21T03:41:41;1149.10;;;999.90;;
27740;SDS011;15134;48.768;9.184;2023-08-21T03:44:07;1141.68;;;999.90;;
27740;SDS011;15134;48.768;9.184;2023-08-21T03:46:36;1143.97;;;999.90;;
27740;SDS011;15134;48.768;9.184;2023-08-21T03:49:02;1144.82;;;999.90;;
27740;SDS011;15134;48.768;9.184;2023-08-21T03:51:31;1141.45;;;999.90;;
27740;SDS011;15134;48.768;9.184;2023-08-21T03:53:56;1148.22;;;999.90;;
27740;SDS011;15134;48.768;9.184;2023-08-21T03:56:22;1145.13;;;999.90;;
27740;SDS011;15134;48.768;9.184;2023-08-21T03:58:48;1143.20;;;999.90;;
27740;SDS011;15134;48.768;9.184;2023-08-21T04:01:14;1142.50;;;999.90;;
27740;SDS011;15134;48.768;9.184;2023-08-21T04:03:41;1143.87;;;999.90;;
27740;SDS011;15134;48.768;9.184;2023-08-21T04:06:07;1140.65;;;999.90;;
27740;SDS011;15134;48.768;9.184;2023-08-21T04:08:33;1141.23;;;999.90;;
27740;SDS011;15134;48.768;9.184;2023-08-21T04:10:58;1140.00;;;999.90;;
27740;SDS011;15134;48.768;9.184;2023-08-21T04:13:28;1141.63;;;999.90;;
27740;SDS011;15134;48.768;9.184;2023-08-21T04:15:54;1136.47;;;999.90;;
27740;SDS011;15134;48.768;9.184;2023-08-21T04:18:21;1139.50;;;999.90;;
27740;SDS011;15134;48.768;9.184;2023-08-21T04:20:49;1144.63;;;999.90;;
27740;SDS011;15134;48.768;9.184;2023-08-21T04:23:15;1142.67;;;999.90;;
27740;SDS011;15134;48.768;9.184;2023-08-21T04:25:43;1137.68;;;999.90;;
27740;SDS011;15134;48.768;9.184;2023-08-21T04:28:10;1135.40;;;999.90;;
27740;SDS011;15134;48.768;9.184;2023-08-21T04:30:39;1136.90;;;999.90;;
27740;SDS011;15134;48.768;9.184;2023-08-21T04:33:13;1136.70;;;999.90;;
27740;SDS011;15134;48.768;9.184;2023-08-21T04:35:39;1140.10;;;999.90;;
27740;SDS011;15134;48.768;9.184;2023-08-21T04:38:05;1140.28;;;999.90;;
27740;SDS011;15134;48.768;9.184;2023-08-21T04:40:32;1142.57;;;999.90;;
27740;SDS011;15134;48.768;9.184;2023-08-21T04:42:58;1138.63;;;999.90;;
27740;SDS011;15134;48.768;9.184;2023-08-21T04:45:23;1137.75;;;999.90;;
27740;SDS011;15134;48.768;9.184;2023-08-21T04:47:49;1138.57;;;999.90;;
27740;SDS011;15134;48.768;9.184;2023-08-21T04:50:15;1139.63;;;999.90;;
27740;SDS011;15134;48.768;9.184;2023-08-21T04:52:43;1136.85;;;999.90;;
27740;SDS011;15134;48.768;9.184;2023-08-21T04:55:08;1138.80;;;999.90;;
27740;SDS011;15134;48.768;9.184;2023-08-21T04:57:36;1138.67;;;999.90;;
27740;SDS011;15134;48.768;9.184;2023-08-21T05:00:05;1139.57;;;999.90;;
27740;SDS011;15134;48.768;9.184;2023-08-21T05:02:36;1138.30;;;999.90;;
27740;SDS011;15134;48.768;9.184;2023-08-21T05:05:02;1137.27;;;999.90;;
27740;SDS011;15134;48.768;9.184;2023-08-21T05:07:29;1134.18;;;999.90;;
27740;SDS011;15134;48.768;9.184;2023-08-21T05:09:58;1139.47;;;999.90;;
27740;SDS011;15134;48.768;9.184;2023-08-21T05:12:25;1135.35;;;999.90;;
27740;SDS011;15134;48.768;9.184;2023-08-21T05:14:51;1139.50;;;999.90;;
27740;SDS011;15134;48.768;9.184;2023-08-21T05:17:18;1137.50;;;999.90;;
27740;SDS011;15134;48.768;9.184;2023-08-21T05:19:43;1136.37;;;999.90;;
27740;SDS011;15134;48.768;9.184;2023-08-21T05:22:11;1137.97;;;999.90;;
27740;SDS011;15134;48.768;9.184;2023-08-21T05:24:37;1137.45;;;999.90;;
27740;SDS011;15134;48.768;9.184;2023-08-21T05:27:09;1143.15;;;999.90;;
27740;SDS011;15134;48.768;9.184;2023-08-21T05:29:35;1138.57;;;999.90;;
27740;SDS011;15134;48.768;9.184;2023-08-21T05:32:01;1139.65;;;999.90;;
27740;SDS011;15134;48.768;9.184;2023-08-21T05:34:30;1133.72;;;999.90;;
27740;SDS011;15134;48.768;9.184;2023-08-21T05:36:56;1136.70;;;999.90;;
27740;SDS011;15134;48.768;9.184;2023-08-21T05:39:22;1141.53;;;999.90;;
27740;SDS011;15134;48.768;9.184;2023-08-21T05:41:48;1141.00;;;999.90;;
27740;SDS011;15134;48.768;9.184;2023-08-21T05:44:14;1143.35;;;999.90;;
27740;SDS011;15134;48.768;9.184;2023-08-21T05:46:40;1147.75;;;999.90;;
27740;SDS011;15134;48.768;9.184;2023-08-21T05:49:08;1140.75;;;999.90;;
27740;SDS011;15134;48.768;9.184;2023-08-21T05:51:34;1144.20;;;999.90;;
27740;SDS011;15134;48.768;9.184;2023-08-21T05:54:00;1144.75;;;999.90;;
27740;SDS011;15134;48.768;9.184;2023-08-21T05:56:26;1147.90;;;999.90;;
27740;SDS011;15134;48.768;9.184;2023-08-21T05:58:52;1149.30;;;999.90;;
27740;SDS011;15134;48.768;9.184;2023-08-21T06:01:18;1146.83;;;999.90;;
27740;SDS011;15134;48.768;9.184;2023-08-21T06:03:43;1150.77;;;999.90;;
27740;SDS011;15134;48.768;9.184;2023-08-21T06:06:30;1142.85;;;999.90;;
27740;SDS011;15134;48.768;9.184;2023-08-21T06:08:55;1147.38;;;999.90;;
27740;SDS011;15134;48.768;9.184;2023-08-21T06:11:24;1149.00;;;999.90;;
27740;SDS011;15134;48.768;9.184;2023-08-21T06:13:50;1154.90;;;999.90;;
27740;SDS011;15134;48.768;9.184;2023-08-21T06:16:15;1154.13;;;999.90;;
27740;SDS011;15134;48.768;9.184;2023-08-21T06:18:43;1150.43;;;999.90;;
27740;SDS011;15134;48.768;9.184;2023-08-21T06:21:09;1160.60;;;999.90;;
27740;SDS011;15134;48.768;9.184;2023-08-21T06:23:35;1175.38;;;999.90;;
27740;SDS011;15134;48.768;9.184;2023-08-21T06:26:01;1184.50;;;999.90;;
27740;SDS011;15134;48.768;9.184;2023-08-21T06:28:29;1196.55;;;999.90;;
27740;SDS011;15134;48.768;9.184;2023-08-21T06:30:56;1205.63;;;999.90;;
27740;SDS011;15134;48.768;9.184;2023-08-21T06:33:23;1210.47;;;999.90;;
27740;SDS011;15134;48.768;9.184;2023-08-21T06:35:53;1216.75;;;999.90;;
27740;SDS011;15134;48.768;9.184;2023-08-21T06:38:18;1225.28;;;999.90;;
27740;SDS011;15134;48.768;9.184;2023-08-21T06:40:45;1230.97;;;999.90;;
27740;SDS011;15134;48.768;9.184;2023-08-21T06:43:11;1226.80;;;999.90;;
27740;SDS011;15134;48.768;9.184;2023-08-21T06:45:42;1241.22;;;999.90;;
27740;SDS011;15134;48.768;9.184;2023-08-21T06:48:07;1247.25;;;999.90;;
27740;SDS011;15134;48.768;9.184;2023-08-21T06:50:33;1262.67;;;999.90;;
27740;SDS011;15134;48.768;9.184;2023-08-21T06:52:59;1271.53;;;999.90;;
27740;SDS011;15134;48.768;9.184;2023-08-21T06:55:25;1281.93;;;999.90;;
27740;SDS011;15134;48.768;9.184;2023-08-21T06:57:50;1284.43;;;999.90;;
27740;SDS011;15134;48.768;9.184;2023-08-21T07:00:16;1289.03;;;999.90;;
27740;SDS011;15134;48.768;9.184;2023-08-21T07:02:42;1299.33;;;999.90;;
27740;SDS011;15134;48.768;9.184;2023-08-21T07:05:10;1303.25;;;999.90;;
27740;SDS011;15134;48.768;9.184;2023-08-21T07:07:36;1306.83;;;999.90;;
27740;SDS011;15134;48.768;9.184;2023-08-21T07:10:02;1311.80;;;999.90;;
27740;SDS011;15134;48.768;9.184;2023-08-21T07:12:28;1312.22;;;999.90;;
27740;SDS011;15134;48.768;9.184;2023-08-21T07:14:54;1318.83;;;999.90;;
27740;SDS011;15134;48.768;9.184;2023-08-21T07:17:20;1317.13;;;999.90;;
27740;SDS011;15134;48.768;9.184;2023-08-21T07:19:46;1317.67;;;999.90;;
27740;SDS011;15134;48.768;9.184;2023-08-21T07:22:14;1323.53;;;999.90;;
27740;SDS011;15134;48.768;9.184;2023-08-21T07:24:40;1326.87;;;999.90;;
27740;SDS011;15134;48.768;9.184;2023-08-21T07:27:06;1322.70;;;999.90;;
27740;SDS011;15134;48.768;9.184;2023-08-21T07:29:38;1328.45;;;999.90;;
27740;SDS011;15134;48.768;9.184;2023-08-21T07:32:06;1339.15;;;999.90;;
27740;SDS011;15134;48.768;9.184;2023-08-21T07:34:34;1339.87;;;999.90;;
27740;SDS011;15134;48.768;9.184;2023-08-21T07:36:59;1346.00;;;999.90;;
27740;SDS011;15134;48.768;9.184;2023-08-21T07:39:25;1345.83;;;999.90;;
27740;SDS011;15134;48.768;9.184;2023-08-21T07:41:51;1344.33;;;999.90;;
27740;SDS011;15134;48.768;9.184;2023-08-21T07:44:18;1347.95;;;999.90;;
27740;SDS011;15134;48.768;9.184;2023-08-21T07:46:44;1352.77;;;999.90;;
27740;SDS011;15134;48.768;9.184;2023-08-21T07:49:10;1344.63;;;999.90;;
27740;SDS011;15134;48.768;9.184;2023-08-21T07:51:36;1350.93;;;999.90;;
27740;SDS011;15134;48.768;9.184;2023-08-21T07:54:01;1353.60;;;999.90;;
27740;SDS011;15134;48.768;9.184;2023-08-21T07:56:33;1355.80;;;999.90;;
27740;SDS011;15134;48.768;9.184;2023-08-21T07:59:01;1358.73;;;999.90;;
27740;SDS011;15134;48.768;9.184;2023-08-21T08:01:27;1358.57;;;999.90;;
27740;SDS011;15134;48.768;9.184;2023-08-21T08:03:53;1365.47;;;999.90;;
27740;SDS011;15134;48.768;9.184;2023-08-21T08:06:19;1362.83;;;999.90;;
27740;SDS011;15134;48.768;9.184;2023-08-21T08:08:44;1365.43;;;999.90;;
27740;SDS011;15134;48.768;9.184;2023-08-21T08:11:11;1370.57;;;999.90;;
27740;SDS011;15134;48.768;9.184;2023-08-21T08:13:36;1377.05;;;999.90;;
27740;SDS011;15134;48.768;9.184;2023-08-21T08:16:02;1376.43;;;999.90;;
27740;SDS011;15134;48.768;9.184;2023-08-21T08:18:28;1372.70;;;999.90;;
27740;SDS011;15134;48.768;9.184;2023-08-21T08:20:54;1378.57;;;999.90;;
27740;SDS011;15134;48.768;9.184;2023-08-21T08:23:20;1379.25;;;999.90;;
27740;SDS011;15134;48.768;9.184;2023-08-21T08:25:47;1381.22;;;999.90;;
27740;SDS011;15134;48.768;9.184;2023-08-21T08:28:13;1380.25;;;999.90;;
27740;SDS011;15134;48.768;9.184;2023-08-21T08:30:38;1383.67;;;999.90;;
27740;SDS011;15134;48.768;9.184;2023-08-21T08:33:04;1382.85;;;999.90;;
27740;SDS011;15134;48.768;9.184;2023-08-21T08:35:30;1383.10;;;999.90;;
27740;SDS011;15134;48.768;9.184;2023-08-21T08:37:55;1385.20;;;999.90;;
27740;SDS011;15134;48.768;9.184;2023-08-21T08:40:24;1384.68;;;999.90;;
27740;SDS011;15134;48.768;9.184;2023-08-21T08:42:50;1376.77;;;999.90;;
27740;SDS011;15134;48.768;9.184;2023-08-21T08:45:16;1379.35;;;999.90;;
27740;SDS011;15134;48.768;9.184;2023-08-21T08:47:55;1372.68;;;999.90;;
27740;SDS011;15134;48.768;9.184;2023-08-21T08:50:24;1369.30;;;999.90;;
27740;SDS011;15134;48.768;9.184;2023-08-21T08:52:52;1368.32;;;999.90;;
27740;SDS011;15134;48.768;9.184;2023-08-21T08:55:18;1369.53;;;999.90;;
27740;SDS011;15134;48.768;9.184;2023-08-21T08:57:44;1373.60;;;999.90;;
27740;SDS011;15134;48.768;9.184;2023-08-21T09:00:11;1379.13;;;999.90;;
27740;SDS011;15134;48.768;9.184;2023-08-21T09:02:37;1376.40;;;999.90;;
27740;SDS011;15134;48.768;9.184;2023-08-21T09:05:03;1381.93;;;999.90;;
27740;SDS011;15134;48.768;9.184;2023-08-21T09:07:29;1382.60;;;999.90;;
27740;SDS011;15134;48.768;9.184;2023-08-21T09:09:55;1387.40;;;999.90;;
27740;SDS011;15134;48.768;9.184;2023-08-21T09:12:21;1386.35;;;999.90;;
27740;SDS011;15134;48.768;9.184;2023-08-21T09:14:47;1389.38;;;999.90;;
27740;SDS011;15134;48.768;9.184;2023-08-21T09:17:13;1387.85;;;999.90;;
27740;SDS011;15134;48.768;9.184;2023-08-21T09:19:40;1387.57;;;999.90;;
27740;SDS011;15134;48.768;9.184;2023-08-21T09:22:11;1383.93;;;999.90;;
27740;SDS011;15134;48.768;9.184;2023-08-21T09:24:38;1384.53;;;999.90;;
27740;SDS011;15134;48.768;9.184;2023-08-21T09:27:12;1390.80;;;999.90;;
27740;SDS011;15134;48.768;9.184;2023-08-21T09:29:40;1378.30;;;999.90;;
27740;SDS011;15134;48.768;9.184;2023-08-21T09:32:06;1381.82;;;999.90;;
27740;SDS011;15134;48.768;9.184;2023-08-21T09:34:35;1387.60;;;999.90;;
27740;SDS011;15134;48.768;9.184;2023-08-21T09:37:05;1380.55;;;999.90;;
27740;SDS011;15134;48.768;9.184;2023-08-21T09:39:33;1381.88;;;999.90;;
27740;SDS011;15134;48.768;9.184;2023-08-21T09:42:00;1383.22;;;999.90;;
27740;SDS011;15134;48.768;9.184;2023-08-21T09:44:27;1383.63;;;999.90;;
27740;SDS011;15134;48.768;9.184;2023-08-21T09:46:53;1383.28;;;999.90;;
27740;SDS011;15134;48.768;9.184;2023-08-21T09:49:18;1380.97;;;999.90;;
27740;SDS011;15134;48.768;9.184;2023-08-21T09:51:46;1380.47;;;999.90;;
27740;SDS011;15134;48.768;9.184;2023-08-21T09:54:12;1376.70;;;999.90;;
27740;SDS011;15134;48.768;9.184;2023-08-21T09:56:38;1370.47;;;999.90;;
27740;SDS011;15134;48.768;9.184;2023-08-21T09:59:06;1362.18;;;999.90;;
27740;SDS011;15134;48.768;9.184;2023-08-21T10:01:33;1358.43;;;999.90;;
27740;SDS011;15134;48.768;9.184;2023-08-21T10:04:04;1354.75;;;999.90;;
27740;SDS011;15134;48.768;9.184;2023-08-21T10:06:32;1344.28;;;999.90;;
27740;SDS011;15134;48.768;9.184;2023-08-21T10:08:58;1338.95;;;999.90;;
27740;SDS011;15134;48.768;9.184;2023-08-21T10:11:24;1336.60;;;999.90;;
27740;SDS011;15134;48.768;9.184;2023-08-21T10:13:51;1330.22;;;999.90;;
27740;SDS011;15134;48.768;9.184;2023-08-21T10:16:19;1321.40;;;999.90;;
27740;SDS011;15134;48.768;9.184;2023-08-21T10:18:46;1314.72;;;999.90;;
27740;SDS011;15134;48.768;9.184;2023-08-21T10:21:14;1314.00;;;999.90;;
27740;SDS011;15134;48.768;9.184;2023-08-21T10:23:50;1312.40;;;999.90;;
27740;SDS011;15134;48.768;9.184;2023-08-21T10:26:21;1306.28;;;999.90;;
27740;SDS011;15134;48.768;9.184;2023-08-21T10:28:48;1309.13;;;999.90;;
27740;SDS011;15134;48.768;9.184;2023-08-21T10:34:05;1304.25;;;999.90;;
27740;SDS011;15134;48.768;9.184;2023-08-21T10:39:16;1306.50;;;999.90;;
27740;SDS011;15134;48.768;9.184;2023-08-21T10:42:05;1305.63;;;999.90;;
27740;SDS011;15134;48.768;9.184;2023-08-21T10:50:06;1302.97;;;999.90;;
27740;SDS011;15134;48.768;9.184;2023-08-21T10:55:03;1301.00;;;999.90;;
27740;SDS011;15134;48.768;9.184;2023-08-21T10:57:29;1294.28;;;999.90;;
27740;SDS011;15134;48.768;9.184;2023-08-21T11:00:09;1291.45;;;999.90;;
27740;SDS011;15134;48.768;9.184;2023-08-21T11:02:40;1296.78;;;999.90;;
27740;SDS011;15134;48.768;9.184;2023-08-21T11:05:10;1296.60;;;999.90;;
27740;SDS011;15134;48.768;9.184;2023-08-21T11:10:06;1297.80;;;999.90;;
27740;SDS011;15134;48.768;9.184;2023-08-21T11:12:33;1290.95;;;999.90;;
27740;SDS011;15134;48.768;9.184;2023-08-21T11:14:59;1293.23;;;999.90;;
27740;SDS011;15134;48.768;9.184;2023-08-21T11:17:25;1290.80;;;999.90;;
27740;SDS011;15134;48.768;9.184;2023-08-21T11:19:50;1292.57;;;999.90;;
27740;SDS011;15134;48.768;9.184;2023-08-21T11:22:17;1290.07;;;999.90;;
27740;SDS011;15134;48.768;9.184;2023-08-21T11:24:44;1289.18;;;999.90;;
27740;SDS011;15134;48.768;9.184;2023-08-21T11:27:12;1290.43;;;999.90;;
27740;SDS011;15134;48.768;9.184;2023-08-21T11:29:44;1289.65;;;999.90;;
27740;SDS011;15134;48.768;9.184;2023-08-21T11:32:12;1287.78;;;999.90;;
27740;SDS011;15134;48.768;9.184;2023-08-21T11:34:51;1285.30;;;999.90;;
27740;SDS011;15134;48.768;9.184;2023-08-21T11:37:19;1284.40;;;999.90;;
27740;SDS011;15134;48.768;9.184;2023-08-21T11:39:51;1281.43;;;999.90;;
27740;SDS011;15134;48.768;9.184;2023-08-21T11:42:21;1278.75;;;999.90;;
27740;SDS011;15134;48.768;9.184;2023-08-21T11:44:54;1280.53;;;999.90;;
27740;SDS011;15134;48.768;9.184;2023-08-21T11:47:20;1282.57;;;999.90;;
27740;SDS011;15134;48.768;9.184;2023-08-21T11:49:47;1281.63;;;999.90;;
27740;SDS011;15134;48.768;9.184;2023-08-21T11:52:17;1285.25;;;999.90;;
27740;SDS011;15134;48.768;9.184;2023-08-21T11:54:57;1285.45;;;999.90;;
27740;SDS011;15134;48.768;9.184;2023-08-21T11:57:23;1279.07;;;999.90;;
27740;SDS011;15134;48.768;9.184;2023-08-21T11:59:52;1280.80;;;999.90;;
27740;SDS011;15134;48.768;9.184;2023-08-21T12:02:27;1273.65;;;999.90;;
27740;SDS011;15134;48.768;9.184;2023-08-21T12:05:03;1278.93;;;999.90;;
27740;SDS011;15134;48.768;9.184;2023-08-21T12:07:31;1273.55;;;999.90;;
27740;SDS011;15134;48.768;9.184;2023-08-21T12:10:00;1275.38;;;999.90;;
27740;SDS011;15134;48.768;9.184;2023-08-21T12:12:26;1280.97;;;999.90;;
27740;SDS011;15134;48.768;9.184;2023-08-21T12:14:52;1279.30;;;999.90;;
27740;SDS011;15134;48.768;9.184;2023-08-21T12:17:18;1275.60;;;999.90;;
27740;SDS011;15134;48.768;9.184;2023-08-21T12:19:44;1270.93;;;999.90;;
27740;SDS011;15134;48.768;9.184;2023-08-21T12:22:10;1276.20;;;999.90;;
27740;SDS011;15134;48.768;9.184;2023-08-21T12:24:37;1273.32;;;999.90;;
27740;SDS011;15134;48.768;9.184;2023-08-21T12:27:03;1274.43;;;999.90;;
27740;SDS011;15134;48.768;9.184;2023-08-21T12:29:29;1275.03;;;999.90;;
27740;SDS011;15134;48.768;9.184;2023-08-21T12:31:55;1276.38;;;999.90;;
27740;SDS011;15134;48.768;9.184;2023-08-21T12:34:21;1274.10;;;999.90;;
27740;SDS011;15134;48.768;9.184;2023-08-21T12:36:49;1273.78;;;999.90;;
27740;SDS011;15134;48.768;9.184;2023-08-21T12:39:16;1270.65;;;999.90;;
27740;SDS011;15134;48.768;9.184;2023-08-21T12:41:41;1270.30;;;999.90;;
27740;SDS011;15134;48.768;9.184;2023-08-21T12:44:08;1266.78;;;999.90;;
27740;SDS011;15134;48.768;9.184;2023-08-21T12:46:35;1262.65;;;999.90;;
27740;SDS011;15134;48.768;9.184;2023-08-21T12:49:01;1266.10;;;999.90;;
27740;SDS011;15134;48.768;9.184;2023-08-21T12:51:28;1266.05;;;999.90;;
27740;SDS011;15134;48.768;9.184;2023-08-21T12:53:54;1266.05;;;999.90;;
27740;SDS011;15134;48.768;9.184;2023-08-21T12:56:20;1262.78;;;999.90;;
27740;SDS011;15134;48.768;9.184;2023-08-21T12:58:47;1264.43;;;999.90;;
27740;SDS011;15134;48.768;9.184;2023-08-21T13:01:13;1269.38;;;999.90;;
27740;SDS011;15134;48.768;9.184;2023-08-21T13:03:43;1268.40;;;999.90;;
27740;SDS011;15134;48.768;9.184;2023-08-21T13:06:11;1266.03;;;999.90;;
27740;SDS011;15134;48.768;9.184;2023-08-21T13:08:37;1267.30;;;999.90;;
27740;SDS011;15134;48.768;9.184;2023-08-21T13:11:03;1266.47;;;999.90;;
27740;SDS011;15134;48.768;9.184;2023-08-21T13:13:30;1257.50;;;999.90;;
27740;SDS011;15134;48.768;9.184;2023-08-21T13:15:56;1265.70;;;999.90;;
27740;SDS011;15134;48.768;9.184;2023-08-21T13:18:22;1258.40;;;999.90;;
27740;SDS011;15134;48.768;9.184;2023-08-21T13:20:47;1260.07;;;999.90;;
27740;SDS011;15134;48.768;9.184;2023-08-21T13:23:13;1261.85;;;999.90;;
27740;SDS011;15134;48.768;9.184;2023-08-21T13:25:39;1262.57;;;999.90;;
27740;SDS011;15134;48.768;9.184;2023-08-21T13:28:07;1259.70;;;999.90;;
27740;SDS011;15134;48.768;9.184;2023-08-21T13:30:33;1262.40;;;999.90;;
27740;SDS011;15134;48.768;9.184;2023-08-21T13:33:00;1262.13;;;999.90;;
27740;SDS011;15134;48.768;9.184;2023-08-21T13:35:25;1262.65;;;999.90;;
27740;SDS011;15134;48.768;9.184;2023-08-21T13:37:51;1264.10;;;999.90;;
27740;SDS011;15134;48.768;9.184;2023-08-21T13:40:17;1259.27;;;999.90;;
27740;SDS011;15134;48.768;9.184;2023-08-21T13:42:43;1259.90;;;999.90;;
27740;SDS011;15134;48.768;9.184;2023-08-21T13:45:11;1261.00;;;999.90;;
27740;SDS011;15134;48.768;9.184;2023-08-21T13:47:44;1256.30;;;999.90;;
27740;SDS011;15134;48.768;9.184;2023-08-21T13:50:13;1263.22;;;999.90;;
27740;SDS011;15134;48.768;9.184;2023-08-21T13:52:40;1258.95;;;999.90;;
27740;SDS011;15134;48.768;9.184;2023-08-21T13:55:07;1261.82;;;999.90;;
27740;SDS011;15134;48.768;9.184;2023-08-21T13:57:35;1265.32;;;999.90;;
27740;SDS011;15134;48.768;9.184;2023-08-21T14:00:02;1259.85;;;999.90;;